createdAt,value
2023-02-03T00:02:11.866Z,21.58
2023-02-03T00:04:39.080Z,24.58
2023-02-03T00:07:06.227Z,21.95
2023-02-03T00:09:33.595Z,22.10
2023-02-03T00:12:00.803Z,22.55
2023-02-03T00:14:27.831Z,22.30
2023-02-03T00:16:54.900Z,21.65
2023-02-03T00:19:21.945Z,21.73
2023-02-03T00:21:52.172Z,22.48
2023-02-03T00:24:20.809Z,22.20
2023-02-03T00:26:47.859Z,22.15
2023-02-03T00:29:14.956Z,21.98
2023-02-03T00:31:42.127Z,21.85
2023-02-03T00:34:09.249Z,21.92
2023-02-03T00:36:36.791Z,22.50
2023-02-03T00:39:03.906Z,22.98
2023-02-03T00:41:31.970Z,21.92
2023-02-03T00:43:59.481Z,21.65
2023-02-03T00:46:26.533Z,21.38
2023-02-03T00:48:53.716Z,21.75
2023-02-03T00:51:21.638Z,22.05
2023-02-03T00:53:49.600Z,21.50
2023-02-03T00:56:16.676Z,23.08
2023-02-03T00:58:43.804Z,22.25
2023-02-03T01:01:10.923Z,23.05
2023-02-03T01:03:38.433Z,22.58
2023-02-03T01:06:14.875Z,23.10
2023-02-03T01:08:42.927Z,21.65
2023-02-03T01:11:12.417Z,23.60
2023-02-03T01:13:40.181Z,22.73
2023-02-03T01:16:13.066Z,22.55
2023-02-03T01:18:40.367Z,22.35
2023-02-03T01:21:17.223Z,21.73
2023-02-03T01:23:44.692Z,22.83
2023-02-03T01:26:14.893Z,22.48
2023-02-03T01:28:42.567Z,22.63
2023-02-03T01:31:21.706Z,21.48
2023-02-03T01:33:49.059Z,22.75
2023-02-03T01:36:17.390Z,21.80
2023-02-03T01:38:45.616Z,22.77
2023-02-03T01:41:21.152Z,22.80
2023-02-03T01:43:51.911Z,22.45
2023-02-03T01:46:29.958Z,23.98
2023-02-03T01:49:11.031Z,22.30
2023-02-03T01:51:40.414Z,22.48
2023-02-03T01:54:12.601Z,22.38
2023-02-03T01:56:44.151Z,22.23
2023-02-03T01:59:11.954Z,23.27
2023-02-03T02:01:40.030Z,22.85
2023-02-03T02:04:08.448Z,23.40
2023-02-03T02:06:35.728Z,21.95
2023-02-03T02:09:03.243Z,22.17
2023-02-03T02:11:30.700Z,22.73
2023-02-03T02:14:02.288Z,22.42
2023-02-03T02:17:11.798Z,22.75
2023-02-03T02:20:00.086Z,21.40
2023-02-03T02:22:43.740Z,23.08
2023-02-03T02:25:19.912Z,23.20
2023-02-03T02:28:25.014Z,21.77
2023-02-03T02:31:17.041Z,22.33
2023-02-03T02:34:03.537Z,22.92
2023-02-03T02:36:55.782Z,23.05
2023-02-03T02:39:46.146Z,22.75
2023-02-03T02:42:29.999Z,22.42
2023-02-03T02:45:04.526Z,22.38
2023-02-03T02:47:32.353Z,23.73
2023-02-03T02:50:09.022Z,23.45
2023-02-03T02:52:40.059Z,22.92
2023-02-03T02:55:19.069Z,23.73
2023-02-03T02:57:48.290Z,22.90
2023-02-03T03:00:15.582Z,22.58
2023-02-03T03:02:42.655Z,23.67
2023-02-03T03:05:12.281Z,22.58
2023-02-03T03:07:53.941Z,23.48
2023-02-03T03:10:25.152Z,22.15
2023-02-03T03:12:57.418Z,22.77
2023-02-03T03:15:27.845Z,23.03
2023-02-03T03:18:08.188Z,23.20
2023-02-03T03:20:37.980Z,23.35
2023-02-03T03:23:22.599Z,23.30
2023-02-03T03:25:57.787Z,23.50
2023-02-03T03:28:34.229Z,23.08
2023-02-03T03:31:01.580Z,22.30
2023-02-03T03:33:28.914Z,23.33
2023-02-03T03:36:12.595Z,23.13
2023-02-03T03:38:50.521Z,22.10
2023-02-03T03:41:22.641Z,22.15
2023-02-03T03:43:51.116Z,22.63
2023-02-03T03:46:23.725Z,22.52
2023-02-03T03:48:56.210Z,22.27
2023-02-03T03:51:48.322Z,21.67
2023-02-03T03:54:19.094Z,22.17
2023-02-03T03:56:58.822Z,22.88
2023-02-03T03:59:29.542Z,24.33
2023-02-03T04:01:59.621Z,22.23
2023-02-03T04:04:28.186Z,22.08
2023-02-03T04:06:55.934Z,32.65
2023-02-03T04:09:23.198Z,22.70
2023-02-03T04:12:02.389Z,23.73
2023-02-03T04:14:30.743Z,22.13
2023-02-03T04:16:58.552Z,23.48
2023-02-03T04:19:26.237Z,21.67
2023-02-03T04:21:53.798Z,22.15
2023-02-03T04:24:21.243Z,21.58
2023-02-03T04:26:48.308Z,23.65
2023-02-03T04:29:15.382Z,20.65
2023-02-03T04:31:42.462Z,22.75
2023-02-03T04:34:09.546Z,22.77
2023-02-03T04:36:36.671Z,22.90
2023-02-03T04:39:03.913Z,23.65
2023-02-03T04:41:30.970Z,22.23
2023-02-03T04:43:58.053Z,21.92
2023-02-03T04:46:25.098Z,23.35
2023-02-03T04:48:52.123Z,23.52
2023-02-03T04:51:19.369Z,22.40
2023-02-03T04:53:46.364Z,21.13
2023-02-03T04:56:15.701Z,21.30
2023-02-03T04:58:42.972Z,22.95
2023-02-03T05:01:10.493Z,21.33
2023-02-03T05:03:37.804Z,23.58
2023-02-03T05:06:05.727Z,24.45
2023-02-03T05:08:32.826Z,23.23
2023-02-03T05:11:01.988Z,22.65
2023-02-03T05:13:29.921Z,23.42
2023-02-03T05:15:57.082Z,23.05
2023-02-03T05:18:24.198Z,22.15
2023-02-03T05:20:51.299Z,23.75
2023-02-03T05:23:18.372Z,23.77
2023-02-03T05:25:46.054Z,24.17
2023-02-03T05:28:13.199Z,23.02
2023-02-03T05:30:40.297Z,23.95
2023-02-03T05:33:07.701Z,23.08
2023-02-03T05:35:35.120Z,24.02
2023-02-03T05:38:02.481Z,24.40
2023-02-03T05:40:48.377Z,24.15
2023-02-03T05:43:15.512Z,24.50
2023-02-03T05:45:42.541Z,25.08
2023-02-03T05:48:10.017Z,23.30
2023-02-03T05:50:38.781Z,24.73
2023-02-03T05:53:07.187Z,23.40
2023-02-03T05:55:35.168Z,22.75
2023-02-03T05:58:02.300Z,24.15
2023-02-03T06:00:29.995Z,24.00
2023-02-03T06:02:59.818Z,23.90
2023-02-03T06:05:27.065Z,23.48
2023-02-03T06:07:54.309Z,23.42
2023-02-03T06:10:22.381Z,24.70
2023-02-03T06:12:50.584Z,22.92
2023-02-03T06:15:18.396Z,23.08
2023-02-03T06:17:47.343Z,22.85
2023-02-03T06:20:16.996Z,23.45
2023-02-03T06:22:44.380Z,23.25
2023-02-03T06:25:13.121Z,22.58
2023-02-03T06:27:41.202Z,22.13
2023-02-03T06:30:09.215Z,20.98
2023-02-03T06:32:36.282Z,22.42
2023-02-03T06:35:03.866Z,22.40
2023-02-03T06:37:31.138Z,23.35
2023-02-03T06:39:58.193Z,22.40
2023-02-03T06:42:25.385Z,23.23
2023-02-03T06:44:52.623Z,21.13
2023-02-03T06:47:19.670Z,22.33
2023-02-03T06:49:46.813Z,23.08
2023-02-03T06:52:14.574Z,22.50
2023-02-03T06:54:41.996Z,19.33
2023-02-03T06:57:09.111Z,20.80
2023-02-03T06:59:36.151Z,22.80
2023-02-03T07:02:03.567Z,22.65
2023-02-03T07:04:30.802Z,21.27
2023-02-03T07:06:57.914Z,23.02
2023-02-03T07:09:25.167Z,23.42
2023-02-03T07:11:52.311Z,23.08
2023-02-03T07:14:19.362Z,23.35
2023-02-03T07:16:46.625Z,22.65
2023-02-03T07:19:13.711Z,22.65
2023-02-03T07:21:40.723Z,23.00
2023-02-03T07:24:08.214Z,19.85
2023-02-03T07:26:35.438Z,20.13
2023-02-03T07:29:02.571Z,21.08
2023-02-03T07:31:31.518Z,23.33
2023-02-03T07:33:58.782Z,17.23
2023-02-03T07:36:25.793Z,21.30
2023-02-03T07:38:56.204Z,22.30
2023-02-03T07:41:23.508Z,22.45
2023-02-03T07:43:50.727Z,22.70
2023-02-03T07:46:18.127Z,21.55
2023-02-03T07:48:47.916Z,21.95
2023-02-03T07:51:15.023Z,21.90
2023-02-03T07:53:42.090Z,21.42
2023-02-03T07:56:12.273Z,20.08
2023-02-03T07:58:39.529Z,18.70
2023-02-03T08:01:16.126Z,17.00
2023-02-03T08:03:43.850Z,20.92
2023-02-03T08:06:11.322Z,17.85
2023-02-03T08:08:41.972Z,18.63
2023-02-03T08:11:09.174Z,20.90
2023-02-03T08:13:36.255Z,20.10
2023-02-03T08:16:07.067Z,19.98
2023-02-03T08:18:34.154Z,20.40
2023-02-03T08:21:03.719Z,20.23
2023-02-03T08:23:31.592Z,19.08
2023-02-03T08:25:58.951Z,19.63
2023-02-03T08:28:26.279Z,19.80
2023-02-03T08:30:53.446Z,19.17
2023-02-03T08:33:20.587Z,18.50
2023-02-03T08:35:49.644Z,18.75
2023-02-03T08:38:17.335Z,18.00
2023-02-03T08:40:44.427Z,19.27
2023-02-03T08:43:12.094Z,18.23
2023-02-03T08:45:41.071Z,20.98
2023-02-03T08:48:08.136Z,21.17
2023-02-03T08:50:35.219Z,19.00
2023-02-03T08:53:02.384Z,20.15
2023-02-03T08:55:29.434Z,20.40
2023-02-03T08:57:56.725Z,19.67
2023-02-03T09:00:24.072Z,19.20
2023-02-03T09:02:51.398Z,18.17
2023-02-03T09:05:18.629Z,19.33
2023-02-03T09:07:45.852Z,20.35
2023-02-03T09:10:12.934Z,19.33
2023-02-03T09:12:40.536Z,17.75
2023-02-03T09:15:08.001Z,19.10
2023-02-03T09:17:35.212Z,18.60
2023-02-03T09:20:02.388Z,16.92
2023-02-03T09:22:31.547Z,18.05
2023-02-03T09:24:59.061Z,17.85
2023-02-03T09:27:26.263Z,17.15
2023-02-03T09:29:53.385Z,17.30
2023-02-03T09:32:20.467Z,16.88
2023-02-03T09:34:47.487Z,16.33
2023-02-03T09:37:14.819Z,16.48
2023-02-03T09:39:42.009Z,14.90
2023-02-03T09:42:20.024Z,15.30
2023-02-03T09:44:59.286Z,14.80
2023-02-03T09:47:30.385Z,15.13
2023-02-03T09:50:01.051Z,13.77
2023-02-03T09:52:39.575Z,14.85
2023-02-03T09:55:44.860Z,13.45
2023-02-03T09:58:18.583Z,14.30
2023-02-03T10:00:52.022Z,13.85
2023-02-03T10:03:31.887Z,15.15
2023-02-03T10:06:17.220Z,15.23
2023-02-03T10:08:52.021Z,15.15
2023-02-03T10:12:12.519Z,15.00
2023-02-03T10:15:15.108Z,15.57
2023-02-03T10:17:47.334Z,14.02
2023-02-03T10:20:17.596Z,14.70
2023-02-03T10:23:13.073Z,15.18
2023-02-03T10:25:49.800Z,15.48
2023-02-03T10:28:24.602Z,15.07
2023-02-03T10:31:03.034Z,15.30
2023-02-03T10:33:32.657Z,14.55
2023-02-03T10:36:22.307Z,14.45
2023-02-03T10:39:23.817Z,15.65
2023-02-03T10:41:54.502Z,15.18
2023-02-03T10:44:45.844Z,13.93
2023-02-03T10:47:34.852Z,13.38
2023-02-03T10:50:07.522Z,14.75
2023-02-03T10:52:35.900Z,13.68
2023-02-03T10:55:30.587Z,14.52
2023-02-03T10:57:58.541Z,15.02
2023-02-03T11:00:32.045Z,14.55
2023-02-03T11:03:08.806Z,14.68
2023-02-03T11:05:35.859Z,14.15
2023-02-03T11:08:03.097Z,14.15
2023-02-03T11:10:37.026Z,14.60
2023-02-03T11:13:25.715Z,14.02
2023-02-03T11:16:06.864Z,13.75
2023-02-03T11:18:52.443Z,13.40
2023-02-03T11:21:19.559Z,13.80
2023-02-03T11:23:55.060Z,13.73
2023-02-03T11:26:27.603Z,12.82
2023-02-03T11:28:58.804Z,14.32
2023-02-03T11:31:48.226Z,13.43
2023-02-03T11:34:24.338Z,13.50
2023-02-03T11:36:51.672Z,12.88
2023-02-03T11:39:24.378Z,12.90
2023-02-03T11:41:51.551Z,13.30
2023-02-03T11:44:21.125Z,12.63
2023-02-03T11:46:53.482Z,12.85
2023-02-03T11:49:41.776Z,12.68
2023-02-03T11:52:27.639Z,12.20
2023-02-03T11:55:15.184Z,11.60
2023-02-03T11:58:14.619Z,12.60
2023-02-03T12:00:51.268Z,12.65
2023-02-03T12:03:55.019Z,10.88
2023-02-03T12:06:32.860Z,10.73
2023-02-03T12:09:24.726Z,10.85
2023-02-03T12:12:00.901Z,11.30
2023-02-03T12:14:43.047Z,12.15
2023-02-03T12:17:47.994Z,11.30
2023-02-03T12:20:40.781Z,9.93
2023-02-03T12:23:40.446Z,10.15
2023-02-03T12:26:10.408Z,10.38
2023-02-03T12:28:46.103Z,10.23
2023-02-03T12:31:29.487Z,10.02
2023-02-03T12:34:07.620Z,10.45
2023-02-03T12:36:59.001Z,9.85
2023-02-03T12:39:39.370Z,8.95
2023-02-03T12:42:17.361Z,9.52
2023-02-03T12:44:52.160Z,9.80
2023-02-03T12:47:32.207Z,12.75
2023-02-03T12:50:34.284Z,10.43
2023-02-03T12:53:11.990Z,9.88
2023-02-03T12:55:45.215Z,10.40
2023-02-03T12:58:21.972Z,10.07
2023-02-03T13:00:52.035Z,9.52
2023-02-03T13:03:32.049Z,9.07
2023-02-03T13:06:24.931Z,10.50
2023-02-03T13:09:21.267Z,10.13
2023-02-03T13:11:54.890Z,9.70
2023-02-03T13:14:33.001Z,10.32
2023-02-03T13:17:28.117Z,9.93
2023-02-03T13:19:59.807Z,10.32
2023-02-03T13:22:28.097Z,10.43
2023-02-03T13:25:02.481Z,10.80
2023-02-03T13:27:49.621Z,10.10
2023-02-03T13:30:49.020Z,9.93
2023-02-03T13:33:48.707Z,10.18
2023-02-03T13:36:42.293Z,10.10
2023-02-03T13:41:50.289Z,9.88
2023-02-03T13:44:21.988Z,10.38
2023-02-03T13:46:51.795Z,10.82
2023-02-03T13:49:30.985Z,11.07
2023-02-03T13:51:58.692Z,12.40
2023-02-03T13:54:31.137Z,12.25
2023-02-03T13:57:02.488Z,12.88
2023-02-03T13:59:56.182Z,12.52
2023-02-03T14:04:59.555Z,12.60
2023-02-03T14:07:38.396Z,12.77
2023-02-03T14:10:15.012Z,12.50
2023-02-03T14:12:51.365Z,13.23
2023-02-03T14:15:33.477Z,13.43
2023-02-03T14:18:02.280Z,12.25
2023-02-03T14:20:32.168Z,12.90
2023-02-03T14:23:07.185Z,13.55
2023-02-03T14:25:42.404Z,14.70
2023-02-03T14:28:19.559Z,13.73
2023-02-03T14:31:05.546Z,14.60
2023-02-03T14:33:49.261Z,14.02
2023-02-03T14:36:30.072Z,14.07
2023-02-03T14:39:00.272Z,14.27
2023-02-03T14:42:02.805Z,14.88
2023-02-03T14:45:17.930Z,13.85
2023-02-03T14:47:52.567Z,15.07
2023-02-03T14:50:28.748Z,14.43
2023-02-03T14:53:08.663Z,15.10
2023-02-03T14:55:35.925Z,14.88
2023-02-03T14:58:16.537Z,14.57
2023-02-03T15:00:43.662Z,14.73
2023-02-03T15:03:11.588Z,14.77
2023-02-03T15:05:43.525Z,14.63
2023-02-03T15:08:33.630Z,14.45
2023-02-03T15:11:01.228Z,15.73
2023-02-03T15:13:32.606Z,15.07
2023-02-03T15:16:02.782Z,14.90
2023-02-03T15:18:36.763Z,15.35
2023-02-03T15:21:05.095Z,14.85
2023-02-03T15:23:43.299Z,15.57
2023-02-03T15:26:16.079Z,16.08
2023-02-03T15:28:43.167Z,14.23
2023-02-03T15:31:41.852Z,14.13
2023-02-03T15:34:30.743Z,14.98
2023-02-03T15:37:08.125Z,13.18
2023-02-03T15:39:40.894Z,13.65
2023-02-03T15:42:17.941Z,14.35
2023-02-03T15:44:51.800Z,13.32
2023-02-03T15:47:31.180Z,14.05
2023-02-03T15:50:14.645Z,13.48
2023-02-03T15:52:44.787Z,14.07
2023-02-03T15:55:26.307Z,13.95
2023-02-03T15:57:53.978Z,13.10
2023-02-03T16:00:27.473Z,13.50
2023-02-03T16:02:56.009Z,12.63
2023-02-03T16:05:34.300Z,14.07
2023-02-03T16:08:35.981Z,12.65
2023-02-03T16:11:27.677Z,13.55
2023-02-03T16:13:56.023Z,13.52
2023-02-03T16:16:38.561Z,9.45
2023-02-03T16:19:20.572Z,47.45
2023-02-03T16:21:50.588Z,18.20
2023-02-03T16:24:33.275Z,13.32
2023-02-03T16:27:28.496Z,12.93
2023-02-03T16:30:39.048Z,5.38
2023-02-03T16:33:28.077Z,11.55
2023-02-03T16:36:15.743Z,11.48
2023-02-03T16:39:08.744Z,12.35
2023-02-03T16:41:56.500Z,11.93
2023-02-03T16:44:42.307Z,12.77
2023-02-03T16:47:44.455Z,12.38
2023-02-03T16:50:38.644Z,11.15
2023-02-03T16:53:07.319Z,12.07
2023-02-03T16:55:34.577Z,26.85
2023-02-03T16:58:01.718Z,12.98
2023-02-03T17:00:28.997Z,13.23
2023-02-03T17:02:58.393Z,14.15
2023-02-03T17:05:25.662Z,14.10
2023-02-03T17:07:53.141Z,12.23
2023-02-03T17:10:20.279Z,12.75
2023-02-03T17:12:47.384Z,12.55
2023-02-03T17:15:14.528Z,12.93
2023-02-03T17:17:41.544Z,12.82
2023-02-03T17:20:09.034Z,12.95
2023-02-03T17:22:36.167Z,13.25
2023-02-03T17:25:03.278Z,12.18
2023-02-03T17:27:30.873Z,11.00
2023-02-03T17:29:58.023Z,10.32
2023-02-03T17:32:25.123Z,10.02
2023-02-03T17:34:52.190Z,11.30
2023-02-03T17:37:19.307Z,10.57
2023-02-03T17:53:33.764Z,11.57
2023-02-03T17:56:26.148Z,11.20
2023-02-03T17:58:58.223Z,12.05
2023-02-03T18:01:26.307Z,11.10
2023-02-03T18:03:56.905Z,11.20
2023-02-03T18:06:25.473Z,9.48
2023-02-03T18:08:52.907Z,7.45
2023-02-03T18:11:20.804Z,6.78
2023-02-03T18:13:50.117Z,5.20
2023-02-03T18:16:22.341Z,4.63
2023-02-03T18:18:51.472Z,15.52
2023-02-03T18:21:20.377Z,5.72
2023-02-03T18:23:49.524Z,5.45
2023-02-03T18:26:17.231Z,5.07
2023-02-03T18:28:44.407Z,5.10
2023-02-03T18:31:15.300Z,5.60
2023-02-03T18:33:45.025Z,5.13
2023-02-03T18:36:13.268Z,6.25
2023-02-03T18:38:42.481Z,5.18
2023-02-03T18:41:14.644Z,4.93
2023-02-03T18:43:42.376Z,4.43
2023-02-03T18:46:12.237Z,4.20
2023-02-03T18:48:39.651Z,3.97
2023-02-03T18:51:14.300Z,4.60
2023-02-03T18:53:42.113Z,4.93
2023-02-03T18:56:18.397Z,5.18
2023-02-03T18:58:46.026Z,5.13
2023-02-03T19:01:28.200Z,6.78
2023-02-03T19:03:57.047Z,6.05
2023-02-03T19:06:25.436Z,5.35
2023-02-03T19:08:52.943Z,5.15
2023-02-03T19:11:20.507Z,4.70
2023-02-03T19:13:47.995Z,5.15
2023-02-03T19:16:17.189Z,7.28
2023-02-03T19:18:45.622Z,5.40
2023-02-03T19:21:13.253Z,6.55
2023-02-03T19:23:41.489Z,5.45
2023-02-03T19:26:10.134Z,7.88
2023-02-03T19:28:37.788Z,13.98
2023-02-03T19:31:15.538Z,19.48
2023-02-03T19:33:43.110Z,5.63
2023-02-03T19:36:11.358Z,5.75
2023-02-03T19:38:38.511Z,5.70
2023-02-03T19:41:07.228Z,6.22
2023-02-03T19:43:35.311Z,6.18
2023-02-03T19:46:02.684Z,6.78
2023-02-03T19:48:30.126Z,5.47
2023-02-03T19:50:57.452Z,5.80
2023-02-03T19:53:24.588Z,5.20
2023-02-03T19:55:52.432Z,4.70
2023-02-03T19:58:19.616Z,4.43
2023-02-03T20:00:46.788Z,3.80
2023-02-03T20:03:13.803Z,4.57
2023-02-03T20:05:40.937Z,7.82
2023-02-03T20:08:08.283Z,4.60
2023-02-03T20:10:35.296Z,4.20
2023-02-03T20:13:02.294Z,4.65
2023-02-03T20:15:29.312Z,4.38
2023-02-03T20:17:56.553Z,3.70
2023-02-03T20:20:24.030Z,3.60
2023-02-03T20:22:51.057Z,3.85
2023-02-03T20:25:19.278Z,4.45
2023-02-03T20:27:46.396Z,4.30
2023-02-03T20:30:13.853Z,4.80
2023-02-03T20:32:41.094Z,4.68
2023-02-03T20:35:08.769Z,5.53
2023-02-03T20:37:36.435Z,5.25
2023-02-03T20:40:12.110Z,5.22
2023-02-03T20:42:40.172Z,5.28
2023-02-03T20:45:14.227Z,6.57
2023-02-03T20:47:41.693Z,6.03
2023-02-03T20:50:18.741Z,4.57
2023-02-03T20:52:47.159Z,4.93
2023-02-03T20:55:20.321Z,4.93
2023-02-03T20:57:50.783Z,5.50
2023-02-03T21:00:21.302Z,5.32
2023-02-03T21:03:15.111Z,4.75
2023-02-03T21:05:45.552Z,4.40
2023-02-03T21:08:18.470Z,3.95
2023-02-03T21:10:47.396Z,4.35
2023-02-03T21:13:26.822Z,4.97
2023-02-03T21:15:56.383Z,5.38
2023-02-03T21:18:38.533Z,3.78
2023-02-03T21:21:16.590Z,4.50
2023-02-03T21:23:47.616Z,4.20
2023-02-03T21:26:23.746Z,4.50
2023-02-03T21:28:58.819Z,4.72
2023-02-03T21:31:34.161Z,4.90
2023-02-03T21:34:04.042Z,4.85
2023-02-03T21:36:35.016Z,4.85
2023-02-03T21:39:02.574Z,4.70
2023-02-03T21:41:33.910Z,4.72
2023-02-03T21:44:01.360Z,5.00
2023-02-03T21:46:32.967Z,5.28
2023-02-03T21:49:01.608Z,4.35
2023-02-03T21:51:38.573Z,5.20
2023-02-03T21:54:30.281Z,4.90
2023-02-03T21:56:58.395Z,5.18
2023-02-03T21:59:30.126Z,4.80
2023-02-03T22:02:02.506Z,4.93
2023-02-03T22:04:30.947Z,5.15
2023-02-03T22:06:58.330Z,4.57
2023-02-03T22:09:27.024Z,4.70
2023-02-03T22:11:54.380Z,4.95
2023-02-03T22:14:21.567Z,6.68
2023-02-03T22:16:49.035Z,4.22
2023-02-03T22:19:21.971Z,4.05
2023-02-03T22:21:51.025Z,4.38
2023-02-03T22:24:18.181Z,4.38
2023-02-03T22:26:45.168Z,4.70
2023-02-03T22:29:12.210Z,4.13
2023-02-03T22:31:40.915Z,4.22
2023-02-03T22:34:09.107Z,3.80
2023-02-03T22:36:36.175Z,4.03
2023-02-03T22:39:03.267Z,4.00
2023-02-03T22:41:30.389Z,4.88
2023-02-03T22:43:57.421Z,4.10
2023-02-03T22:46:24.496Z,4.03
2023-02-03T22:48:51.755Z,4.07
2023-02-03T22:51:18.872Z,4.10
2023-02-03T22:53:46.229Z,4.22
2023-02-03T22:56:13.301Z,4.45
2023-02-03T22:58:40.394Z,4.72
2023-02-03T23:01:07.481Z,4.65
2023-02-03T23:03:34.734Z,4.72
2023-02-03T23:06:01.900Z,4.72
2023-02-03T23:08:28.995Z,4.68
2023-02-03T23:10:56.517Z,7.95
2023-02-03T23:13:24.165Z,5.43
2023-02-03T23:15:51.508Z,4.95
2023-02-03T23:18:18.808Z,4.80
2023-02-03T23:20:46.046Z,6.07
2023-02-03T23:23:14.330Z,5.72
2023-02-03T23:25:41.428Z,5.28
2023-02-03T23:28:08.667Z,4.95
2023-02-03T23:30:35.807Z,5.38
2023-02-03T23:33:02.910Z,5.38
2023-02-03T23:35:49.648Z,5.60
2023-02-03T23:38:17.639Z,5.45
2023-02-03T23:40:45.566Z,4.72
2023-02-03T23:43:12.733Z,5.32
2023-02-03T23:45:40.270Z,5.65
2023-02-03T23:48:07.853Z,6.65
2023-02-03T23:50:35.167Z,5.63
2023-02-03T23:53:02.231Z,5.70
2023-02-03T23:55:31.364Z,5.38
2023-02-03T23:57:58.489Z,5.95
